createdAt,value
2019-05-22T00:01:25.092Z,13.80
2019-05-22T00:02:36.146Z,13.80
2019-05-22T00:03:52.084Z,13.90
2019-05-22T00:05:03.360Z,13.90
2019-05-22T00:06:10.104Z,13.80
2019-05-22T00:07:16.350Z,13.80
2019-05-22T00:08:22.861Z,13.90
2019-05-22T00:09:38.378Z,13.90
2019-05-22T00:10:44.904Z,13.90
2019-05-22T00:11:52.244Z,13.90
2019-05-22T00:12:58.585Z,13.90
2019-05-22T00:14:05.668Z,13.90
2019-05-22T00:15:11.936Z,13.90
2019-05-22T00:16:17.477Z,13.90
2019-05-22T00:17:31.067Z,13.90
2019-05-22T00:18:35.864Z,13.80
2019-05-22T00:19:41.843Z,13.70
2019-05-22T00:20:47.282Z,13.70
2019-05-22T00:21:57.527Z,13.70
2019-05-22T00:23:08.314Z,13.70
2019-05-22T00:24:15.168Z,13.70
2019-05-22T00:25:23.362Z,13.70
2019-05-22T00:26:29.236Z,13.70
2019-05-22T00:27:35.348Z,13.70
2019-05-22T00:28:41.346Z,13.70
2019-05-22T00:29:47.168Z,13.70
2019-05-22T00:30:53.336Z,13.70
2019-05-22T00:31:58.854Z,13.70
2019-05-22T00:33:05.355Z,13.70
2019-05-22T00:34:11.511Z,13.60
2019-05-22T00:35:19.834Z,13.60
2019-05-22T00:36:24.750Z,13.60
2019-05-22T00:37:30.981Z,13.60
2019-05-22T00:38:36.439Z,13.60
2019-05-22T00:39:42.006Z,13.60
2019-05-22T00:40:51.490Z,13.50
2019-05-22T00:41:57.609Z,13.50
2019-05-22T00:43:10.726Z,13.50
2019-05-22T00:44:13.561Z,13.50
2019-05-22T00:45:20.141Z,13.50
2019-05-22T00:46:26.036Z,13.50
2019-05-22T00:47:33.823Z,13.50
2019-05-22T00:48:42.470Z,13.50
2019-05-22T00:49:50.440Z,13.50
2019-05-22T00:51:11.573Z,13.50
2019-05-22T00:52:46.385Z,13.50
2019-05-22T00:54:01.175Z,13.50
2019-05-22T00:55:22.272Z,13.50
2019-05-22T00:56:51.568Z,13.50
2019-05-22T00:58:24.581Z,13.50
2019-05-22T00:59:33.614Z,13.50
2019-05-22T01:00:45.860Z,13.50
2019-05-22T01:01:55.780Z,13.50
2019-05-22T01:03:03.033Z,13.50
2019-05-22T01:04:11.620Z,13.50
2019-05-22T01:05:20.262Z,13.50
2019-05-22T01:06:27.292Z,13.50
2019-05-22T01:07:42.661Z,13.50
2019-05-22T01:08:49.612Z,13.50
2019-05-22T01:09:58.232Z,13.50
2019-05-22T01:11:04.871Z,13.50
2019-05-22T01:12:17.176Z,13.40
2019-05-22T01:13:22.912Z,13.50
2019-05-22T01:14:41.902Z,13.40
2019-05-22T01:15:35.893Z,13.40
2019-05-22T01:16:43.456Z,13.40
2019-05-22T01:17:50.894Z,13.40
2019-05-22T01:18:58.448Z,13.40
2019-05-22T01:20:05.254Z,13.40
2019-05-22T01:21:13.480Z,13.40
2019-05-22T01:22:20.364Z,13.40
2019-05-22T01:23:26.148Z,13.40
2019-05-22T01:24:33.363Z,13.30
2019-05-22T01:25:39.548Z,13.40
2019-05-22T01:26:46.746Z,13.40
2019-05-22T01:27:52.432Z,13.40
2019-05-22T01:28:57.668Z,13.40
2019-05-22T01:30:05.137Z,13.50
2019-05-22T01:31:16.256Z,13.40
2019-05-22T01:32:40.492Z,13.40
2019-05-22T01:34:13.528Z,13.40
2019-05-22T01:35:22.781Z,13.40
2019-05-22T01:36:40.945Z,13.40
2019-05-22T01:37:46.710Z,13.40
2019-05-22T01:38:53.958Z,13.40
2019-05-22T01:40:05.217Z,13.50
2019-05-22T01:41:18.733Z,13.40
2019-05-22T01:42:33.497Z,13.40
2019-05-22T01:43:40.516Z,13.50
2019-05-22T01:44:59.740Z,13.50
2019-05-22T01:45:54.410Z,13.50
2019-05-22T01:47:04.422Z,13.50
2019-05-22T01:48:16.000Z,13.50
2019-05-22T01:49:21.905Z,13.50
2019-05-22T01:50:51.238Z,13.40
2019-05-22T01:51:57.848Z,13.50
2019-05-22T01:53:04.461Z,13.50
2019-05-22T01:54:11.327Z,13.50
2019-05-22T01:55:18.796Z,13.50
2019-05-22T01:56:24.910Z,13.60
2019-05-22T01:57:31.356Z,13.50
2019-05-22T01:58:39.263Z,13.50
2019-05-22T01:59:45.929Z,13.50
2019-05-22T02:00:55.575Z,13.50
2019-05-22T02:02:01.886Z,13.50
2019-05-22T02:03:08.378Z,13.50
2019-05-22T02:04:14.920Z,13.50
2019-05-22T02:05:21.012Z,13.50
2019-05-22T02:06:29.144Z,13.50
2019-05-22T02:07:34.541Z,13.60
2019-05-22T02:08:44.678Z,13.60
2019-05-22T02:09:51.816Z,13.50
2019-05-22T02:11:00.616Z,13.60
2019-05-22T02:12:13.861Z,13.60
2019-05-22T02:13:26.374Z,13.60
2019-05-22T02:14:32.549Z,13.60
2019-05-22T02:15:38.186Z,13.60
2019-05-22T02:16:56.023Z,13.60
2019-05-22T02:17:56.413Z,13.60
2019-05-22T02:19:02.623Z,13.60
2019-05-22T02:20:10.184Z,13.60
2019-05-22T02:21:17.079Z,13.60
2019-05-22T02:22:22.757Z,13.60
2019-05-22T02:23:29.462Z,13.60
2019-05-22T02:24:35.025Z,13.60
2019-05-22T02:25:40.580Z,13.60
2019-05-22T02:26:46.986Z,13.50
2019-05-22T02:27:52.070Z,13.50
2019-05-22T02:28:59.389Z,13.50
2019-05-22T02:30:05.736Z,13.50
2019-05-22T02:31:12.251Z,13.50
2019-05-22T02:32:18.703Z,13.50
2019-05-22T02:33:25.370Z,13.50
2019-05-22T02:34:32.211Z,13.50
2019-05-22T02:35:38.481Z,13.50
2019-05-22T02:36:45.166Z,13.50
2019-05-22T02:37:51.014Z,13.50
2019-05-22T02:38:56.543Z,13.50
2019-05-22T02:40:03.223Z,13.50
2019-05-22T02:41:13.965Z,13.40
2019-05-22T02:42:21.985Z,13.40
2019-05-22T02:43:27.983Z,13.40
2019-05-22T02:44:34.013Z,13.40
2019-05-22T02:45:39.628Z,13.40
2019-05-22T02:46:45.439Z,13.40
2019-05-22T02:47:52.887Z,13.40
2019-05-22T02:48:59.041Z,13.40
2019-05-22T02:50:06.023Z,13.50
2019-05-22T02:51:11.734Z,13.50
2019-05-22T02:52:17.489Z,13.50
2019-05-22T02:53:24.098Z,13.50
2019-05-22T02:54:31.677Z,13.50
2019-05-22T02:55:38.287Z,13.50
2019-05-22T02:56:43.189Z,13.50
2019-05-22T02:57:48.853Z,13.50
2019-05-22T02:58:55.820Z,13.50
2019-05-22T03:00:01.406Z,13.50
2019-05-22T03:01:06.712Z,13.50
2019-05-22T03:02:15.185Z,13.50
2019-05-22T03:03:20.536Z,13.50
2019-05-22T03:04:27.933Z,13.50
2019-05-22T03:05:32.937Z,13.50
2019-05-22T03:06:39.295Z,13.40
2019-05-22T03:07:47.663Z,13.40
2019-05-22T03:09:29.040Z,13.40
2019-05-22T03:10:35.608Z,13.50
2019-05-22T03:11:43.875Z,13.40
2019-05-22T03:12:52.137Z,13.50
2019-05-22T03:14:01.773Z,13.50
2019-05-22T03:15:09.904Z,13.50
2019-05-22T03:16:15.553Z,13.50
2019-05-22T03:17:32.693Z,13.60
2019-05-22T03:18:38.073Z,13.60
2019-05-22T03:19:46.001Z,13.60
2019-05-22T03:20:51.142Z,13.60
2019-05-22T03:21:58.253Z,13.60
2019-05-22T03:23:36.504Z,13.60
2019-05-22T03:24:42.249Z,13.70
2019-05-22T03:25:48.010Z,13.60
2019-05-22T03:26:54.159Z,13.60
2019-05-22T03:27:59.973Z,13.60
2019-05-22T03:29:06.237Z,13.60
2019-05-22T03:30:20.097Z,13.60
2019-05-22T03:31:26.869Z,13.80
2019-05-22T03:32:32.469Z,13.80
2019-05-22T03:33:39.382Z,13.80
2019-05-22T03:34:45.914Z,13.80
2019-05-22T03:35:54.882Z,13.80
2019-05-22T03:36:59.861Z,13.80
2019-05-22T03:38:06.644Z,13.90
2019-05-22T03:39:12.755Z,13.80
2019-05-22T03:40:18.710Z,13.80
2019-05-22T03:41:24.361Z,13.90
2019-05-22T03:42:29.720Z,13.90
2019-05-22T03:43:36.236Z,13.90
2019-05-22T03:44:41.909Z,13.90
2019-05-22T03:45:48.014Z,14.00
2019-05-22T03:46:54.806Z,14.00
2019-05-22T03:48:03.083Z,14.00
2019-05-22T03:49:28.059Z,14.00
2019-05-22T03:50:17.989Z,14.00
2019-05-22T03:51:24.280Z,14.10
2019-05-22T03:52:30.920Z,14.10
2019-05-22T03:53:36.623Z,14.10
2019-05-22T03:54:43.729Z,14.10
2019-05-22T03:55:50.314Z,14.10
2019-05-22T03:56:56.006Z,14.20
2019-05-22T03:58:01.663Z,14.20
2019-05-22T03:59:08.673Z,14.30
2019-05-22T04:00:18.047Z,14.30
2019-05-22T04:01:23.521Z,14.30
2019-05-22T04:02:29.139Z,14.30
2019-05-22T04:03:35.229Z,14.40
2019-05-22T04:04:42.823Z,14.40
2019-05-22T04:05:48.873Z,14.40
2019-05-22T04:06:55.445Z,14.40
2019-05-22T04:08:05.370Z,14.50
2019-05-22T04:09:23.000Z,14.50
2019-05-22T04:10:31.638Z,14.60
2019-05-22T04:11:40.436Z,14.60
2019-05-22T04:12:45.564Z,14.60
2019-05-22T04:13:51.211Z,14.70
2019-05-22T04:14:56.206Z,14.70
2019-05-22T04:16:03.029Z,14.70
2019-05-22T04:17:10.522Z,14.70
2019-05-22T04:18:22.758Z,14.70
2019-05-22T04:19:25.822Z,14.80
2019-05-22T04:20:32.025Z,14.80
2019-05-22T04:21:37.858Z,14.80
2019-05-22T04:22:43.616Z,14.90
2019-05-22T04:23:48.864Z,14.90
2019-05-22T04:24:55.357Z,14.90
2019-05-22T04:26:01.892Z,14.90
2019-05-22T04:27:09.469Z,15.00
2019-05-22T04:28:15.092Z,15.00
2019-05-22T04:29:21.022Z,15.10
2019-05-22T04:30:26.320Z,15.10
2019-05-22T04:31:52.262Z,15.20
2019-05-22T04:32:57.712Z,15.30
2019-05-22T04:34:03.393Z,15.40
2019-05-22T04:35:12.304Z,15.40
2019-05-22T04:36:19.071Z,15.40
2019-05-22T04:37:25.249Z,15.50
2019-05-22T04:38:32.120Z,15.50
2019-05-22T04:39:39.061Z,15.50
2019-05-22T04:40:49.864Z,15.60
2019-05-22T04:41:56.681Z,15.60
2019-05-22T04:43:03.081Z,15.60
2019-05-22T04:44:08.347Z,15.60
2019-05-22T04:45:16.144Z,15.60
2019-05-22T04:46:21.962Z,15.70
2019-05-22T04:47:28.270Z,15.60
2019-05-22T04:48:35.452Z,15.70
2019-05-22T04:49:42.178Z,15.80
2019-05-22T04:50:47.525Z,15.70
2019-05-22T04:51:53.544Z,15.80
2019-05-22T04:52:59.087Z,15.90
2019-05-22T04:54:05.013Z,15.90
2019-05-22T04:55:11.628Z,16.00
2019-05-22T04:56:17.081Z,15.90
2019-05-22T04:57:22.255Z,15.90
2019-05-22T04:58:30.381Z,15.90
2019-05-22T04:59:36.610Z,15.90
2019-05-22T05:00:42.954Z,15.90
2019-05-22T05:01:48.449Z,15.90
2019-05-22T05:02:54.317Z,16.00
2019-05-22T05:04:01.623Z,16.00
2019-05-22T05:05:07.671Z,16.00
2019-05-22T05:06:13.229Z,16.10
2019-05-22T05:07:19.756Z,16.10
2019-05-22T05:08:25.293Z,16.10
2019-05-22T05:09:31.588Z,16.20
2019-05-22T05:10:36.745Z,16.20
2019-05-22T05:11:43.090Z,16.10
2019-05-22T05:12:48.320Z,16.10
2019-05-22T05:13:54.175Z,16.10
2019-05-22T05:14:59.643Z,16.10
2019-05-22T05:16:05.473Z,16.20
2019-05-22T05:17:11.266Z,16.20
2019-05-22T05:18:17.454Z,16.20
2019-05-22T05:19:22.640Z,16.20
2019-05-22T05:20:28.476Z,16.30
2019-05-22T05:21:33.652Z,16.30
2019-05-22T05:22:46.681Z,16.30
2019-05-22T05:23:52.036Z,16.30
2019-05-22T05:24:57.733Z,16.30
2019-05-22T05:26:03.355Z,16.30
2019-05-22T05:27:10.349Z,16.30
2019-05-22T05:28:16.688Z,16.40
2019-05-22T05:29:33.001Z,16.40
2019-05-22T05:30:38.011Z,16.40
2019-05-22T05:31:43.699Z,16.50
2019-05-22T05:32:48.800Z,16.50
2019-05-22T05:34:13.290Z,16.50
2019-05-22T05:35:20.271Z,16.50
2019-05-22T05:36:26.261Z,16.60
2019-05-22T05:37:32.275Z,16.60
2019-05-22T05:38:40.155Z,16.60
2019-05-22T05:40:26.836Z,16.60
2019-05-22T05:41:33.243Z,16.60
2019-05-22T05:42:38.733Z,16.70
2019-05-22T05:43:44.353Z,16.80
2019-05-22T05:44:49.440Z,16.80
2019-05-22T05:45:55.472Z,16.70
2019-05-22T05:47:01.322Z,16.60
2019-05-22T05:48:09.329Z,16.60
2019-05-22T05:49:15.618Z,16.60
2019-05-22T05:50:37.841Z,16.60
2019-05-22T05:51:34.204Z,16.50
2019-05-22T05:52:41.005Z,16.50
2019-05-22T05:54:08.990Z,16.60
2019-05-22T05:55:16.709Z,16.50
2019-05-22T05:56:21.926Z,16.60
2019-05-22T05:58:16.061Z,16.60
2019-05-22T05:59:23.789Z,16.70
2019-05-22T06:00:33.320Z,16.60
2019-05-22T06:01:58.490Z,16.70
2019-05-22T06:03:12.158Z,16.80
2019-05-22T06:04:34.978Z,16.90
2019-05-22T06:05:39.136Z,16.90
2019-05-22T06:07:22.244Z,16.90
2019-05-22T06:08:28.557Z,16.90
2019-05-22T16:57:44.767Z,20.30
2019-05-22T16:58:51.532Z,20.00
2019-05-22T16:59:58.619Z,20.00
2019-05-22T17:01:04.812Z,20.00
2019-05-22T17:02:12.352Z,20.00
2019-05-22T17:03:18.101Z,20.00
2019-05-22T17:04:23.130Z,19.90
2019-05-22T17:05:28.928Z,19.90
2019-05-22T17:06:34.475Z,19.80
2019-05-22T17:07:41.992Z,19.80
2019-05-22T17:08:47.535Z,19.80
2019-05-22T17:09:54.418Z,19.70
2019-05-22T17:11:02.315Z,19.70
2019-05-22T17:12:10.490Z,19.70
2019-05-22T17:13:16.792Z,19.60
2019-05-22T17:14:24.254Z,19.60
2019-05-22T17:15:30.857Z,19.60
2019-05-22T17:16:40.393Z,19.60
2019-05-22T17:17:45.856Z,19.50
2019-05-22T17:18:51.415Z,19.40
2019-05-22T17:19:56.578Z,19.40
2019-05-22T17:21:03.759Z,19.30
2019-05-22T17:22:10.628Z,19.30
2019-05-22T17:23:16.291Z,19.30
2019-05-22T17:24:21.714Z,19.30
2019-05-22T17:25:28.728Z,19.20
2019-05-22T17:26:34.043Z,19.20
2019-05-22T17:27:39.575Z,19.10
2019-05-22T17:28:44.845Z,19.10
2019-05-22T17:29:52.210Z,19.10
2019-05-22T17:30:58.943Z,19.10
2019-05-22T17:32:05.879Z,19.10
2019-05-22T17:33:11.928Z,19.10
2019-05-22T17:34:33.717Z,19.10
2019-05-22T17:35:39.453Z,19.10
2019-05-22T17:36:45.158Z,19.00
2019-05-22T17:37:50.083Z,19.00
2019-05-22T17:38:58.002Z,18.90
2019-05-22T17:40:04.351Z,18.90
2019-05-22T17:41:11.103Z,18.80
2019-05-22T17:42:19.213Z,18.80
2019-05-22T17:43:26.323Z,18.70
2019-05-22T17:44:32.184Z,18.60
2019-05-22T17:45:37.965Z,18.60
2019-05-22T17:46:44.765Z,18.50
2019-05-22T17:47:51.857Z,18.50
2019-05-22T17:48:59.589Z,18.50
2019-05-22T17:50:05.779Z,18.50
2019-05-22T17:51:12.211Z,18.50
2019-05-22T17:52:18.835Z,18.40
2019-05-22T17:53:25.191Z,18.40
2019-05-22T17:54:30.828Z,18.30
2019-05-22T17:55:35.871Z,18.30
2019-05-22T17:56:42.008Z,18.20
2019-05-22T17:57:47.199Z,18.20
2019-05-22T17:58:53.029Z,18.20
2019-05-22T17:59:58.124Z,18.10
2019-05-22T18:01:03.845Z,18.10
2019-05-22T18:02:11.043Z,18.10
2019-05-22T18:03:17.673Z,18.10
2019-05-22T18:04:23.249Z,18.10
2019-05-22T18:05:30.732Z,18.00
2019-05-22T18:06:35.904Z,18.00
2019-05-22T18:07:42.454Z,18.00
2019-05-22T18:08:48.010Z,17.90
2019-05-22T18:09:53.657Z,17.90
2019-05-22T18:11:01.052Z,17.80
2019-05-22T18:12:08.240Z,17.80
2019-05-22T18:13:14.296Z,17.90
2019-05-22T18:14:20.172Z,17.80
2019-05-22T18:15:25.934Z,17.80
2019-05-22T18:16:33.361Z,17.80
2019-05-22T18:17:39.386Z,17.80
2019-05-22T18:18:44.892Z,17.80
2019-05-22T18:19:49.707Z,17.70
2019-05-22T18:20:55.459Z,17.70
2019-05-22T18:22:01.204Z,17.60
2019-05-22T18:23:07.246Z,17.60
2019-05-22T18:24:12.529Z,17.60
2019-05-22T18:25:18.566Z,17.50
2019-05-22T18:26:24.160Z,17.50
2019-05-22T18:27:31.486Z,17.50
2019-05-22T18:28:36.438Z,17.50
2019-05-22T18:29:41.858Z,17.50
2019-05-22T18:30:47.049Z,17.40
2019-05-22T18:31:53.095Z,17.40
2019-05-22T18:32:57.955Z,17.40
2019-05-22T18:34:03.400Z,17.30
2019-05-22T18:35:09.604Z,17.30
2019-05-22T18:36:15.243Z,17.30
2019-05-22T18:37:20.187Z,17.30
2019-05-22T18:38:25.970Z,17.30
2019-05-22T18:39:30.910Z,17.20
2019-05-22T18:40:36.464Z,17.20
2019-05-22T18:41:41.514Z,17.20
2019-05-22T18:42:47.612Z,17.10
2019-05-22T18:43:52.793Z,17.10
2019-05-22T18:44:58.475Z,17.10
2019-05-22T18:46:03.719Z,17.00
2019-05-22T18:47:10.860Z,17.00
2019-05-22T18:48:15.834Z,17.00
2019-05-22T18:49:21.457Z,16.90
2019-05-22T18:50:27.436Z,16.90
2019-05-22T18:51:33.026Z,16.80
2019-05-22T18:52:41.559Z,16.80
2019-05-22T18:53:47.349Z,16.80
2019-05-22T18:54:52.334Z,16.70
2019-05-22T18:55:57.976Z,16.70
2019-05-22T18:57:02.937Z,16.70
2019-05-22T18:58:08.769Z,16.60
2019-05-22T18:59:13.717Z,16.60
2019-05-22T19:00:22.363Z,16.60
2019-05-22T19:01:27.810Z,16.60
2019-05-22T19:02:33.518Z,16.50
2019-05-22T19:03:38.778Z,16.50
2019-05-22T19:04:44.462Z,16.50
2019-05-22T19:05:49.320Z,16.50
2019-05-22T19:06:56.093Z,16.40
2019-05-22T19:08:01.069Z,16.50
2019-05-22T19:09:08.593Z,16.40
2019-05-22T19:10:14.827Z,16.40
2019-05-22T19:11:20.266Z,16.40
2019-05-22T19:12:25.319Z,16.30
2019-05-22T19:13:30.986Z,16.30
2019-05-22T19:14:36.522Z,16.30
2019-05-22T19:15:42.358Z,16.30
2019-05-22T19:16:47.408Z,16.30
2019-05-22T19:17:53.308Z,16.20
2019-05-22T19:18:58.228Z,16.20
2019-05-22T19:20:03.826Z,16.20
2019-05-22T19:21:09.670Z,16.10
2019-05-22T19:22:15.391Z,16.20
2019-05-22T19:23:20.488Z,16.20
2019-05-22T19:24:26.291Z,16.30
2019-05-22T19:25:31.636Z,16.20
2019-05-22T19:26:37.828Z,16.20
2019-05-22T19:27:42.941Z,16.20
2019-05-22T19:28:48.396Z,16.20
2019-05-22T19:29:53.289Z,16.20
2019-05-22T19:30:58.962Z,16.10
2019-05-22T19:32:04.000Z,16.10
2019-05-22T19:33:09.882Z,16.10
2019-05-22T19:34:15.178Z,16.10
2019-05-22T19:35:20.931Z,16.10
2019-05-22T19:36:26.077Z,16.00
2019-05-22T19:37:31.798Z,16.00
2019-05-22T19:38:36.760Z,16.00
2019-05-22T19:39:42.318Z,16.00
2019-05-22T19:40:47.545Z,15.90
2019-05-22T19:42:01.912Z,15.90
2019-05-22T19:43:00.081Z,15.90
2019-05-22T19:44:07.223Z,15.90
2019-05-22T19:45:13.047Z,15.90
2019-05-22T19:46:19.648Z,15.90
2019-05-22T19:47:25.061Z,16.00
2019-05-22T19:48:31.723Z,16.00
2019-05-22T19:49:36.894Z,16.00
2019-05-22T19:50:43.055Z,16.00
2019-05-22T19:51:49.746Z,15.90
2019-05-22T19:52:57.542Z,15.80
2019-05-22T19:54:03.231Z,15.80
2019-05-22T19:55:10.612Z,15.90
2019-05-22T19:56:15.842Z,15.80
2019-05-22T19:57:21.600Z,15.80
2019-05-22T19:58:27.806Z,15.70
2019-05-22T19:59:33.531Z,15.70
2019-05-22T20:00:38.834Z,15.70
2019-05-22T20:01:44.599Z,15.60
2019-05-22T20:02:50.894Z,15.60
2019-05-22T20:03:56.995Z,15.60
2019-05-22T20:05:02.153Z,15.60
2019-05-22T20:06:07.818Z,15.60
2019-05-22T20:07:14.534Z,15.70
2019-05-22T20:08:20.500Z,15.60
2019-05-22T20:09:25.995Z,15.60
2019-05-22T20:10:33.059Z,15.60
2019-05-22T20:11:38.770Z,15.60
2019-05-22T20:12:47.749Z,15.70
2019-05-22T20:13:52.922Z,15.70
2019-05-22T20:14:59.731Z,15.60
2019-05-22T20:16:05.409Z,15.60
2019-05-22T20:17:11.542Z,15.50
2019-05-22T20:18:16.816Z,15.50
2019-05-22T20:19:22.601Z,15.50
2019-05-22T20:20:28.656Z,15.50
2019-05-22T20:21:34.365Z,15.50
2019-05-22T20:22:42.340Z,15.50
2019-05-22T20:23:48.552Z,15.50
2019-05-22T20:24:53.990Z,15.60
2019-05-22T20:25:59.737Z,15.50
2019-05-22T20:27:09.510Z,15.50
2019-05-22T20:28:14.082Z,15.50
2019-05-22T20:29:20.082Z,15.40
2019-05-22T20:30:26.902Z,15.40
2019-05-22T20:31:32.366Z,15.40
2019-05-22T20:32:39.038Z,15.40
2019-05-22T20:33:44.263Z,15.40
2019-05-22T20:34:50.165Z,15.30
2019-05-22T20:35:55.564Z,15.30
2019-05-22T20:37:01.496Z,15.30
2019-05-22T20:38:07.588Z,15.30
2019-05-22T20:39:17.978Z,15.40
2019-05-22T20:40:23.993Z,15.40
2019-05-22T20:41:29.914Z,15.40
2019-05-22T20:42:36.077Z,15.30
2019-05-22T20:43:42.131Z,15.30
2019-05-22T20:44:47.648Z,15.30
2019-05-22T20:45:56.307Z,15.30
2019-05-22T20:47:02.798Z,15.30
2019-05-22T20:48:14.781Z,15.30
2019-05-22T20:49:20.386Z,15.30
2019-05-22T20:50:26.356Z,15.30
2019-05-22T20:51:31.889Z,15.20
2019-05-22T20:52:37.991Z,15.10
2019-05-22T20:53:54.171Z,15.10
2019-05-22T20:54:53.457Z,15.10
2019-05-22T20:56:01.293Z,15.10
2019-05-22T20:57:08.000Z,15.10
2019-05-22T20:58:14.574Z,15.00
2019-05-22T20:59:21.447Z,15.00
2019-05-22T21:00:27.515Z,15.00
2019-05-22T21:01:35.555Z,15.00
2019-05-22T21:02:44.057Z,14.90
2019-05-22T21:03:50.557Z,14.80
2019-05-22T21:04:57.672Z,14.70
2019-05-22T21:06:07.724Z,14.70
2019-05-22T21:07:16.063Z,14.60
2019-05-22T21:08:25.208Z,14.60
2019-05-22T21:09:31.987Z,14.60
2019-05-22T21:10:38.195Z,14.60
2019-05-22T21:11:44.674Z,14.50
2019-05-22T21:12:51.586Z,14.40
2019-05-22T21:13:56.661Z,14.50
2019-05-22T21:15:02.576Z,14.50
2019-05-22T21:16:09.631Z,14.50
2019-05-22T21:17:17.532Z,14.50
2019-05-22T21:18:28.422Z,14.50
2019-05-22T21:19:35.753Z,14.40
2019-05-22T21:20:54.333Z,14.30
2019-05-22T21:21:48.818Z,14.30
2019-05-22T21:22:54.436Z,14.30
2019-05-22T21:24:09.855Z,14.30
2019-05-22T21:25:08.103Z,14.30
2019-05-22T21:26:13.792Z,14.40
2019-05-22T21:27:19.479Z,14.40
2019-05-22T21:28:26.287Z,14.30
2019-05-22T21:29:33.668Z,14.30
2019-05-22T21:30:40.618Z,14.30
2019-05-22T21:31:47.924Z,14.20
2019-05-22T21:32:54.329Z,14.20
2019-05-22T21:33:59.919Z,14.20
2019-05-22T21:35:06.488Z,14.20
2019-05-22T21:36:14.198Z,14.20
2019-05-22T21:37:21.510Z,14.20
2019-05-22T21:38:28.206Z,14.20
2019-05-22T21:39:34.494Z,14.20
2019-05-22T21:40:40.697Z,14.20
2019-05-22T21:41:47.058Z,14.20
2019-05-22T21:42:53.606Z,14.20
2019-05-22T21:43:59.469Z,14.20
2019-05-22T21:45:05.276Z,14.10
2019-05-22T21:46:11.280Z,14.10
2019-05-22T21:47:16.406Z,14.10
2019-05-22T21:48:22.436Z,14.10
2019-05-22T21:49:30.035Z,14.00
2019-05-22T21:50:35.918Z,14.00
2019-05-22T21:51:41.278Z,14.00
2019-05-22T21:52:47.563Z,14.00
2019-05-22T21:53:53.282Z,14.00
2019-05-22T21:54:58.937Z,14.00
2019-05-22T21:56:06.250Z,14.00
2019-05-22T21:57:12.321Z,14.00
2019-05-22T21:58:18.627Z,14.00
2019-05-22T21:59:24.301Z,14.00
2019-05-22T22:00:52.212Z,14.00
2019-05-22T22:02:03.673Z,14.00
2019-05-22T22:03:08.805Z,14.00
2019-05-22T22:04:34.516Z,14.00
2019-05-22T22:05:40.083Z,14.00
2019-05-22T22:06:46.369Z,14.00
2019-05-22T22:07:51.872Z,14.00
2019-05-22T22:08:57.693Z,13.90
2019-05-22T22:10:02.751Z,13.90
2019-05-22T22:11:09.537Z,13.90
2019-05-22T22:12:18.481Z,13.90
2019-05-22T22:13:24.485Z,14.00
2019-05-22T22:14:31.465Z,13.90
2019-05-22T22:15:41.593Z,13.90
2019-05-22T22:16:48.007Z,13.90
2019-05-22T22:17:53.861Z,13.90
2019-05-22T22:19:00.052Z,13.90
2019-05-22T22:20:07.580Z,13.90
2019-05-22T22:21:14.708Z,13.90
2019-05-22T22:22:27.722Z,13.90
2019-05-22T22:23:34.246Z,13.90
2019-05-22T22:24:40.525Z,13.80
2019-05-22T22:25:45.817Z,13.80
2019-05-22T22:26:51.690Z,13.80
2019-05-22T22:27:56.928Z,13.80
2019-05-22T22:29:03.461Z,13.80
2019-05-22T22:30:15.476Z,13.80
2019-05-22T22:31:22.868Z,13.80
2019-05-22T22:32:29.933Z,13.90
2019-05-22T22:33:36.594Z,13.80
2019-05-22T22:34:51.810Z,13.80
2019-05-22T22:35:57.736Z,13.80
2019-05-22T22:37:02.798Z,13.80
2019-05-22T22:38:08.907Z,13.70
2019-05-22T22:39:15.318Z,13.60
2019-05-22T22:40:24.576Z,13.60
2019-05-22T22:41:29.747Z,13.60
2019-05-22T22:42:37.090Z,13.60
2019-05-22T22:43:45.092Z,13.60
2019-05-22T22:44:55.022Z,13.60
2019-05-22T22:46:11.784Z,13.60
2019-05-22T22:47:20.601Z,13.60
2019-05-22T22:48:32.031Z,13.60
2019-05-22T22:49:38.622Z,13.60
2019-05-22T22:50:45.313Z,13.50
2019-05-22T22:51:53.054Z,13.50
2019-05-22T22:52:59.134Z,13.50
2019-05-22T22:54:07.336Z,13.60
2019-05-22T22:55:14.427Z,13.50
2019-05-22T22:56:21.649Z,13.50
2019-05-22T22:57:27.261Z,13.50
2019-05-22T22:58:33.904Z,13.50
2019-05-22T22:59:41.092Z,13.50
2019-05-22T23:00:48.041Z,13.60
2019-05-22T23:01:56.850Z,13.60
2019-05-22T23:03:03.802Z,13.60
2019-05-22T23:04:10.759Z,13.60
2019-05-22T23:05:18.599Z,13.50
2019-05-22T23:06:23.764Z,13.50
2019-05-22T23:07:31.334Z,13.50
2019-05-22T23:08:37.994Z,13.50
2019-05-22T23:09:44.896Z,13.50
2019-05-22T23:10:51.106Z,13.50
2019-05-22T23:11:57.607Z,13.50
2019-05-22T23:13:03.710Z,13.50
2019-05-22T23:14:09.684Z,13.50
2019-05-22T23:15:18.467Z,13.50
2019-05-22T23:16:26.316Z,13.50
2019-05-22T23:17:32.382Z,13.40
2019-05-22T23:19:18.936Z,13.40
2019-05-22T23:20:22.886Z,13.50
2019-05-22T23:21:25.948Z,13.50
2019-05-22T23:22:29.908Z,13.50
2019-05-22T23:23:32.835Z,13.50
2019-05-22T23:24:42.168Z,13.50
2019-05-22T23:25:47.204Z,13.50
2019-05-22T23:26:53.177Z,13.50
2019-05-22T23:27:59.204Z,13.50
2019-05-22T23:29:05.734Z,13.50
2019-05-22T23:30:11.038Z,13.50
2019-05-22T23:31:16.665Z,13.50
2019-05-22T23:32:23.016Z,13.50
2019-05-22T23:33:30.319Z,13.50
2019-05-22T23:34:35.628Z,13.50
2019-05-22T23:35:41.105Z,13.50
2019-05-22T23:36:46.556Z,13.50
2019-05-22T23:37:52.485Z,13.50
2019-05-22T23:38:59.697Z,13.50
2019-05-22T23:40:06.581Z,13.50
2019-05-22T23:41:12.705Z,13.50
2019-05-22T23:42:26.487Z,13.50
2019-05-22T23:43:32.335Z,13.50
2019-05-22T23:44:38.934Z,13.50
2019-05-22T23:45:43.963Z,13.50
2019-05-22T23:46:50.466Z,13.50
2019-05-22T23:48:06.508Z,13.50
2019-05-22T23:49:12.453Z,13.50
2019-05-22T23:50:17.624Z,13.40
2019-05-22T23:51:23.516Z,13.40
2019-05-22T23:52:29.101Z,13.40
2019-05-22T23:53:36.236Z,13.40
2019-05-22T23:54:41.344Z,13.40
2019-05-22T23:55:47.080Z,13.40
2019-05-22T23:56:52.122Z,13.40
2019-05-22T23:57:59.188Z,13.40
2019-05-22T23:59:04.152Z,13.40
